ADDS METAR Data INFO
IDs: Format: Raw Decoded Include TAF

Data at: 0508 UTC 23 May 2017

KF17 230455Z AUTO 36009KT 7SM OVC003 19/18 A2992 RMK AO2 T01850177
KF17 230435Z AUTO 01008KT 7SM OVC003 19/18 A2992 RMK AO2 T01850177
KF17 230415Z AUTO 01007KT 5SM BR OVC003 19/18 A2992 RMK AO2 T01850176
KF17 230355Z AUTO 01008KT 320V020 5SM BR OVC003 19/18 A2992 RMK AO2 T01850178
KF17 230335Z AUTO 36008KT 5SM BR OVC003 19/18 A2993 RMK AO2 T01850177
KF17 230315Z AUTO 01007KT 5SM BR OVC003 19/18 A2993 RMK AO2 T01850177
KF17 230255Z AUTO 01006KT 5SM BR OVC003 19/18 A2993 RMK AO2 T01860178
KF17 230235Z AUTO 01007KT 7SM OVC003 19/18 A2993 RMK AO2 T01850178
KF17 230215Z AUTO 01007KT 7SM OVC003 19/18 A2993 RMK AO2 T01860179
KF17 230155Z AUTO 01007KT 7SM OVC005 19/18 A2993 RMK AO2 T01870180
KF17 230135Z AUTO 01007KT 10SM OVC005 19/18 A2993 RMK AO2 T01890181
KF17 230115Z AUTO 01008KT 10SM OVC005 19/18 A2992 RMK AO2 T01910184
KF17 230055Z AUTO 02008G14KT 7SM OVC005 19/19 A2993 RMK AO2 T01930185
KF17 230035Z AUTO 01008KT 10SM OVC007 20/19 A2993 RMK AO2 T01970190
KF17 230015Z AUTO 01008KT 10SM OVC007 20/19 A2993 RMK AO2 T02000191
KF17 222355Z AUTO 02007KT 10SM OVC007 20/19 A2993 RMK AO2 60036 T02010193 10209 20187
KF17 222335Z AUTO 02007KT 10SM OVC007 20/20 A2992 RMK AO2 T02030196
KF17 222315Z AUTO 01009KT 10SM OVC009 20/20 A2994 RMK AO2 T02030196
KF17 222255Z AUTO 02006KT 10SM BKN007 OVC014 20/20 A2994 RMK AO2 T02040196
KF17 222235Z AUTO 02008KT 10SM OVC009 21/20 A2995 RMK AO2 T02060200
KF17 222215Z AUTO 02007KT 10SM OVC009 21/20 A2995 RMK AO2 T02050198
KF17 222155Z AUTO 02007KT 10SM OVC007 20/20 A2995 RMK AO2 P0001 T02030195
KF17 222135Z AUTO 05005KT 10SM -RA OVC005 20/20 A2995 RMK AO2 P0001 T02010195
KF17 222115Z AUTO 04004KT 10SM -RA OVC005 20/19 A2996 RMK AO2 T02010193
KF17 222055Z AUTO 06006KT 10SM RA OVC005 20/19 A2996 RMK AO2 P0007 60035 T01960189
KF17 222035Z AUTO 07005KT 7SM -RA OVC005 20/19 A2998 RMK AO2 P0007 T01950187
KF17 222015Z AUTO 08006KT 10SM -RA OVC005 19/18 A2999 RMK AO2 P0002 T01910183
KF17 221955Z AUTO 10007KT 7SM RA OVC005 19/18 A3000 RMK AO2 P0014 T01900182
KF17 221935Z AUTO 07004KT 7SM RA OVC005 19/18 A3001 RMK AO2 P0009 T01900182
KF17 221915Z AUTO 09007KT 4SM RA OVC005 19/19 A3001 RMK AO2 P0004 T01930185
KF17 221855Z AUTO 09008G18KT 7SM RA SCT005 BKN019 OVC060 19/19 A3002 RMK AO2 P0014 T01940186
KF17 221835Z AUTO 08010G21KT 7SM -RA SCT010 SCT042 OVC050 19/19 A3002 RMK AO2 P0013 T01920185
KF17 221815Z AUTO 10009G21KT 4SM RA SCT008 BKN046 OVC060 19/18 A3003 RMK AO2 P0008 T01900182
KF17 221755Z AUTO 10009G14KT 5SM RA BKN050 OVC055 19/18 A3004 RMK AO2 P0043 60198 T01870180 10188 20177
KF17 221735Z AUTO 10009KT 3SM RA SCT007 SCT030 OVC050 19/18 A3004 RMK AO2 P0034 T01870180
KF17 221715Z AUTO 08007KT 2 1/2SM +RA SCT007 BKN043 OVC050 19/18 A3005 RMK AO2 P0018 T01870180
KF17 221655Z AUTO 08005KT 4SM RA OVC005 19/18 A3006 RMK AO2 P0030 T01870180
KF17 221635Z AUTO 05005KT 4SM +RA BKN005 BKN012 OVC047 19/18 A3006 RMK AO2 P0018 T01870180
KF17 221615Z AUTO 05006KT 5SM RA BKN005 BKN020 OVC060 19/18 A3005 RMK AO2 P0006 T01870180
KF17 221555Z AUTO 07008KT 3SM +RA SCT005 BKN017 OVC060 19/18 A3006 RMK AO2 P0033 T01870180
KF17 221535Z AUTO 07008KT 4SM +RA BKN007 BKN018 OVC060 19/18 A3006 RMK AO2 P0019 T01870180
KF17 221515Z AUTO 06006KT 4SM +RA BKN007 BKN017 OVC060 19/18 A3007 RMK AO2 P0008 T01860180
KF17 221455Z AUTO 05007KT 4SM RA BKN007 BKN039 OVC070 19/18 A3007 RMK AO2 P0034 60090 T01850177
KF17 221435Z AUTO 04005KT 5SM +RA SCT007 BKN048 OVC070 18/18 A3008 RMK AO2 P0024 T01830176
KF17 221415Z AUTO 04007KT 3SM +RA SCT007 BKN050 OVC065 18/17 A3007 RMK AO2 P0014 T01810174
KF17 221355Z AUTO 01010KT 5SM +RA SCT007 BKN031 OVC065 18/17 A3009 RMK AO2 P0033 T01800173
KF17 221335Z AUTO 04008G14KT 4SM RA BKN007 BKN039 OVC065 18/17 A3010 RMK AO2 P0022 T01800171
KF17 221315Z AUTO 01008G14KT 5SM +RA BKN007 BKN013 OVC049 18/17 A3009 RMK AO2 P0010 T01790171
KF17 221255Z AUTO 02009G16KT 5SM +RA SCT007 SCT011 OVC047 18/17 A3009 RMK AO2 P0021 T01770170
KF17 221235Z AUTO 01010G15KT 5SM +RA SCT007 BKN038 OVC060 18/17 A3008 RMK AO2 P0009 T01770170
KF17 221215Z AUTO 01010KT 10SM RA BKN007 OVC021 18/17 A3009 RMK AO2 P0002 T01790171
KF17 221155Z AUTO 02008KT 10SM -RA SCT007 BKN021 OVC036 18/17 A3010 RMK AO2 P0004 60046 70050 T01800172 10203 20180
KF17 221135Z AUTO 02008KT 10SM -RA SCT005 SCT017 OVC036 18/17 A3009 RMK AO2 P0003 T01810174
KF17 221115Z AUTO 02008KT 10SM -RA SCT005 BKN014 OVC040 18/18 A3009 RMK AO2 P0002 T01830175
KF17 221055Z AUTO 01008KT 4SM +RA SCT030 OVC039 18/18 A3009 RMK AO2 P0017 T01820175
KF17 221035Z AUTO 03006KT 10SM -RA SCT041 BKN060 OVC075 18/18 A3009 RMK AO2 P0005 T01820175
KF17 221015Z AUTO 01008KT 10SM -RA SCT038 SCT044 OVC070 18/18 A3008 RMK AO2 P0002 T01840176
KF17 220955Z AUTO 03008KT 5SM RA SCT017 BKN038 OVC070 19/18 A3008 RMK AO2 P0012 T01860178
KF17 220935Z AUTO 01007KT 10SM -RA BKN017 BKN030 OVC070 19/18 A3010 RMK AO2 P0004 T01900182
KF17 220915Z AUTO 01007KT 10SM -RA SCT022 BKN060 OVC100 19/18 A3009 RMK AO2 P0003 T01910184
KF17 220855Z AUTO 36009KT 10SM RA SCT016 BKN060 OVC100 19/19 A3009 RMK AO2 P0010 60010 T01920185
KF17 220835Z AUTO 34004KT 7SM -RA SCT018 BKN060 OVC075 19/19 A3011 RMK AO2 P0008 T01930185
KF17 220815Z AUTO 33004KT 7SM +RA SCT016 SCT035 OVC060 20/19 A3012 RMK AO2 P0002 T01970190
KF17 220755Z AUTO 31003KT 10SM OVC060 20/19 A3010 RMK AO2 T01970190
KF17 220735Z AUTO 00000KT 10SM -DZ BKN060 BKN095 OVC110 20/19 A3010 RMK AO2 T01980190
KF17 220715Z AUTO 00000KT 10SM SCT060 SCT080 OVC110 20/19 A3010 RMK AO2 T01990191
KF17 220655Z AUTO 04003KT 10SM SCT060 SCT080 OVC120 20/19 A3010 RMK AO2 T02000191
KF17 220635Z AUTO 00000KT 10SM BKN120 20/19 A3010 RMK AO2 T02000191
KF17 220615Z AUTO 00000KT 10SM CLR 20/19 A3008 RMK AO2 T02030187
KF17 220555Z AUTO 00000KT 10SM SCT100 SCT120 20/19 A3007 RMK AO2 T02010191 10222 20193 402440193
KF17 220535Z AUTO 03008KT 10SM -DZ SCT120 20/19 A3005 RMK AO2 T01970190
KF17 220515Z AUTO 00000KT 10SM CLR 20/19 A3010 RMK AO2 T01960188
KF17 220455Z AUTO 09007KT 10SM CLR 20/19 A3012 RMK AO2 T01950186
KF17 220435Z AUTO 03005KT 10SM BKN080 20/19 A3013 RMK AO2 T01950187
KF17 220415Z AUTO 00000KT 10SM OVC080 20/19 A3013 RMK AO2 T01970189
KF17 220355Z AUTO 00000KT 10SM BKN080 20/19 A3014 RMK AO2 T01950187
KF17 220335Z AUTO 00000KT 10SM SCT080 20/19 A3013 RMK AO2 T01960185
KF17 220315Z AUTO 00000KT 10SM SCT080 20/18 A3012 RMK AO2 T01980178
KF17 220255Z AUTO 07003KT 10SM CLR 20/18 A3010 RMK AO2 T01980178
KF17 220235Z AUTO 02007KT 10SM SCT070 20/18 A3009 RMK AO2 T01980182
KF17 220215Z AUTO 08006KT 10SM CLR 20/18 A3010 RMK AO2 T02010184
KF17 220155Z AUTO 03006KT 10SM CLR 21/19 A3009 RMK AO2 T02050190
KF17 220135Z AUTO 01006KT 10SM CLR 21/20 A3009 RMK AO2 T02080196
KF17 220115Z AUTO 02009KT 10SM CLR 21/20 A3009 RMK AO2 T02110196
KF17 220055Z AUTO 02007KT 10SM CLR 22/20 A3008 RMK AO2 T02150196
KF17 220035Z AUTO 00000KT 10SM CLR 22/19 A3010 RMK AO2 T02210189
KF17 220015Z AUTO 02004KT 10SM CLR 22/19 A3008 RMK AO2 T02200189
KF17 212355Z AUTO 01009KT 10SM CLR 22/19 A3007 RMK AO2 60002 T02200190 10244 20218
KF17 212335Z AUTO 01009G14KT 10SM CLR 22/19 A3006 RMK AO2 T02220189
KF17 212315Z AUTO 36009G14KT 10SM CLR 23/19 A3008 RMK AO2 T02280189
KF17 212255Z AUTO 36008KT 10SM SCT012 23/19 A3008 RMK AO2 T02290193
KF17 212235Z AUTO 01004KT 10SM SCT014 SCT020 23/20 A3009 RMK AO2 T02320196
KF17 212215Z AUTO 36008KT 10SM BKN014 BKN120 23/20 A3011 RMK AO2 T02290197
KF17 212155Z AUTO 36007KT 330V030 10SM SCT011 BKN110 24/20 A3009 RMK AO2 T02400201
KF17 212135Z AUTO 35007KT 10SM SCT009 OVC110 24/21 A3008 RMK AO2 T02370206
KF17 212115Z AUTO 33009KT 10SM BKN090 OVC120 24/21 A3007 RMK AO2 T02350205
KF17 212055Z AUTO 03004G14KT 10SM SCT043 BKN080 BKN110 24/20 A3005 RMK AO2 60002 T02350198
KF17 212035Z AUTO 10009G14KT 10SM SCT090 SCT120 24/20 A3006 RMK AO2 T02390195
KF17 212015Z AUTO 06006KT 10SM BKN090 BKN120 24/19 A3007 RMK AO2 T02370193
KF17 211955Z AUTO 01005KT 10SM SCT025 SCT030 BKN090 24/20 A3011 RMK AO2 T02420200
KF17 211935Z AUTO 34006KT 10SM BKN075 BKN100 23/20 A3012 RMK AO2 T02310197
KF17 211915Z AUTO 30007KT 10SM SCT060 BKN075 OVC100 23/20 A3015 RMK AO2 T02270197
KF17 211855Z AUTO 00000KT 10SM -RA SCT050 BKN055 OVC070 22/19 A3013 RMK AO2 P0002 T02190190
KF17 211835Z AUTO 00000KT 10SM RA OVC050 22/18 A3013 RMK AO2 T02200184
KF17 211815Z AUTO 03005KT 10SM SCT031 SCT041 OVC050 22/18 A3013 RMK AO2 T02200178
KF17 211755Z AUTO 01010G16KT 10SM SCT019 OVC029 22/18 A3015 RMK AO2 60002 T02220176 10231 20211
KF17 211735Z AUTO 36011G23KT 10SM SCT014 OVC025 22/18 A3016 RMK AO2 T02230183
KF17 211715Z AUTO 35013G21KT 320V020 10SM SCT014 OVC023 22/18 A3014 RMK AO2 T02150181


Page loaded:  05:08 UTC  |   10:08 PM Pacific  |   11:08 PM Mountain  |   12:08 AM Central  |   01:08 AM Eastern

 

ADVISORIES

FORECASTS

FORECASTS

OBSERVATIONS

USER TOOLS

ABOUT US